createdAt,value
2019-03-03T00:00:26.699Z,81.40
2019-03-03T00:03:12.084Z,81.10
2019-03-03T00:05:57.747Z,81.00
2019-03-03T00:08:42.855Z,81.40
2019-03-03T00:11:27.947Z,81.60
2019-03-03T00:14:12.871Z,80.80
2019-03-03T00:17:00.199Z,80.50
2019-03-03T00:19:46.679Z,80.70
2019-03-03T00:22:31.810Z,80.60
2019-03-03T00:25:21.215Z,80.20
2019-03-03T00:28:06.931Z,80.10
2019-03-03T00:30:51.691Z,79.70
2019-03-03T00:33:37.884Z,79.60
2019-03-03T00:36:24.563Z,79.40
2019-03-03T00:39:11.868Z,79.20
2019-03-03T00:41:59.518Z,79.10
2019-03-03T00:44:49.687Z,79.00
2019-03-03T00:47:51.928Z,79.00
2019-03-03T00:50:55.548Z,78.80
2019-03-03T00:53:59.123Z,78.90
2019-03-03T00:56:46.091Z,78.80
2019-03-03T00:59:48.886Z,78.80
2019-03-03T01:02:36.406Z,78.70
2019-03-03T01:05:24.688Z,78.70
2019-03-03T01:08:17.625Z,79.00
2019-03-03T01:11:07.527Z,78.80
2019-03-03T01:13:55.717Z,78.80
2019-03-03T01:16:45.347Z,78.70
2019-03-03T01:19:35.116Z,79.10
2019-03-03T01:22:40.341Z,78.90
2019-03-03T01:25:26.145Z,78.90
2019-03-03T01:28:11.521Z,78.90
2019-03-03T01:30:56.871Z,78.80
2019-03-03T01:33:42.102Z,78.90
2019-03-03T01:36:27.456Z,78.90
2019-03-03T01:39:13.950Z,78.80
2019-03-03T01:41:59.130Z,78.90
2019-03-03T01:44:44.346Z,78.80
2019-03-03T01:47:31.576Z,79.00
2019-03-03T01:50:17.091Z,79.10
2019-03-03T01:53:03.717Z,79.20
2019-03-03T01:55:52.947Z,79.40
2019-03-03T01:58:35.538Z,79.70
2019-03-03T02:01:21.115Z,79.90
2019-03-03T02:04:06.166Z,80.00
2019-03-03T02:06:51.275Z,80.10
2019-03-03T02:09:36.593Z,80.20
2019-03-03T02:12:21.673Z,80.50
2019-03-03T02:15:07.706Z,80.50
2019-03-03T02:17:53.074Z,80.40
2019-03-03T02:20:38.371Z,80.60
2019-03-03T02:23:25.592Z,80.50
2019-03-03T02:26:10.883Z,80.50
2019-03-03T02:28:56.079Z,80.90
2019-03-03T02:31:41.401Z,80.50
2019-03-03T02:34:26.429Z,80.40
2019-03-03T02:37:12.050Z,80.60
2019-03-03T02:39:57.007Z,81.10
2019-03-03T02:42:42.685Z,81.50
2019-03-03T02:45:37.424Z,81.90
2019-03-03T02:48:32.454Z,82.10
2019-03-03T02:51:21.290Z,82.30
2019-03-03T02:54:07.012Z,82.20
2019-03-03T02:56:51.995Z,82.00
2019-03-03T02:59:37.426Z,82.10
2019-03-03T03:02:35.600Z,82.30
2019-03-03T03:05:27.643Z,82.50
2019-03-03T03:08:18.751Z,82.40
2019-03-03T03:11:25.346Z,82.80
2019-03-03T03:14:17.368Z,83.00
2019-03-03T03:17:07.085Z,82.90
2019-03-03T03:19:55.728Z,83.40
2019-03-03T03:23:01.025Z,83.80
2019-03-03T03:25:53.060Z,83.80
2019-03-03T03:28:40.109Z,84.00
2019-03-03T03:31:27.500Z,84.10
2019-03-03T03:34:30.188Z,84.20
2019-03-03T03:37:32.670Z,84.80
2019-03-03T03:40:24.826Z,85.60
2019-03-03T03:43:14.133Z,86.20
2019-03-03T03:46:20.145Z,86.00
2019-03-03T03:49:10.220Z,85.80
2019-03-03T03:52:00.225Z,86.40
2019-03-03T03:54:53.871Z,85.70
2019-03-03T03:58:26.607Z,85.90
2019-03-03T04:00:45.160Z,86.50
2019-03-03T04:03:35.317Z,86.40
2019-03-03T04:06:27.339Z,86.10
2019-03-03T04:09:27.383Z,85.90
2019-03-03T04:12:23.597Z,86.10
2019-03-03T04:15:13.882Z,86.10
2019-03-03T04:18:03.883Z,85.80
2019-03-03T04:21:06.354Z,85.40
2019-03-03T04:24:11.550Z,85.40
2019-03-03T04:27:05.157Z,85.10
2019-03-03T04:30:07.025Z,85.10
2019-03-03T04:32:53.815Z,85.00
2019-03-03T04:35:41.026Z,85.00
2019-03-03T04:38:43.096Z,84.90
2019-03-03T04:41:30.578Z,84.70
2019-03-03T04:44:33.978Z,84.70
2019-03-03T04:47:34.088Z,85.00
2019-03-03T04:50:27.952Z,85.50
2019-03-03T04:53:17.184Z,85.80
2019-03-03T04:56:21.822Z,85.60
2019-03-03T04:59:21.663Z,85.50
2019-03-03T05:02:09.365Z,85.80
2019-03-03T05:05:01.012Z,85.80
2019-03-03T05:07:54.202Z,85.70
2019-03-03T05:10:46.991Z,85.40
2019-03-03T05:13:34.242Z,85.40
2019-03-03T05:16:30.964Z,85.20
2019-03-03T05:19:20.115Z,85.80
2019-03-03T05:22:06.361Z,86.00
2019-03-03T05:24:51.267Z,85.80
2019-03-03T05:27:36.714Z,85.90
2019-03-03T05:30:22.140Z,85.90
2019-03-03T05:33:06.942Z,85.80
2019-03-03T05:35:51.856Z,85.50
2019-03-03T05:38:37.117Z,85.40
2019-03-03T05:41:22.401Z,85.50
2019-03-03T05:44:07.638Z,85.50
2019-03-03T05:46:52.656Z,85.90
2019-03-03T05:49:39.047Z,85.80
2019-03-03T05:52:25.422Z,85.60
2019-03-03T05:55:10.658Z,85.20
2019-03-03T05:57:57.472Z,85.20
2019-03-03T06:00:43.216Z,85.00
2019-03-03T06:03:31.331Z,85.00
2019-03-03T06:06:32.343Z,84.80
2019-03-03T06:09:21.650Z,84.50
2019-03-03T06:12:07.027Z,84.30
2019-03-03T06:14:53.305Z,84.10
2019-03-03T06:17:39.701Z,84.00
2019-03-03T06:20:27.929Z,84.00
2019-03-03T06:23:17.207Z,83.90
2019-03-03T06:26:03.006Z,83.80
2019-03-03T06:28:50.732Z,83.60
2019-03-03T06:31:35.924Z,83.50
2019-03-03T06:34:23.184Z,83.40
2019-03-03T06:37:08.686Z,83.40
2019-03-03T06:39:56.484Z,83.30
2019-03-03T06:42:46.192Z,83.40
2019-03-03T06:45:34.393Z,83.40
2019-03-03T06:48:19.588Z,83.50
2019-03-03T06:51:06.941Z,83.50
2019-03-03T06:53:54.255Z,83.50
2019-03-03T06:56:41.715Z,83.60
2019-03-03T06:59:31.087Z,83.70
2019-03-03T07:02:19.329Z,83.60
2019-03-03T07:05:06.957Z,83.70
2019-03-03T07:07:54.156Z,83.50
2019-03-03T07:10:22.829Z,83.40
2019-03-03T07:12:51.049Z,83.40
2019-03-03T07:15:19.453Z,83.10
2019-03-03T07:17:50.601Z,83.00
2019-03-03T07:20:19.496Z,83.10
2019-03-03T07:22:48.999Z,83.00
2019-03-03T07:25:18.919Z,83.00
2019-03-03T07:27:47.123Z,83.20
2019-03-03T07:30:16.052Z,83.00
2019-03-03T07:33:04.887Z,82.90
2019-03-03T07:35:50.273Z,82.90
2019-03-03T07:38:36.288Z,83.10
2019-03-03T07:41:21.776Z,83.80
2019-03-03T07:44:06.971Z,83.40
2019-03-03T07:46:52.186Z,83.30
2019-03-03T07:49:37.666Z,83.30
2019-03-03T07:52:22.900Z,83.70
2019-03-03T07:55:09.483Z,83.60
2019-03-03T07:57:54.473Z,83.50
2019-03-03T08:00:40.243Z,83.30
2019-03-03T08:03:25.175Z,82.90
2019-03-03T08:06:12.687Z,82.50
2019-03-03T08:09:01.933Z,82.40
2019-03-03T08:11:50.960Z,82.50
2019-03-03T08:14:37.199Z,82.60
2019-03-03T08:17:24.784Z,82.50
2019-03-03T08:20:11.341Z,83.20
2019-03-03T08:22:56.715Z,83.50
2019-03-03T08:25:41.898Z,83.60
2019-03-03T08:28:27.065Z,83.50
2019-03-03T08:31:15.327Z,83.90
2019-03-03T08:34:00.402Z,84.30
2019-03-03T08:36:45.952Z,84.50
2019-03-03T08:39:33.974Z,84.60
2019-03-03T08:42:35.435Z,84.70
2019-03-03T08:45:27.372Z,84.50
2019-03-03T08:48:30.858Z,84.70
2019-03-03T08:51:27.305Z,84.80
2019-03-03T08:54:32.914Z,85.00
2019-03-03T08:57:36.614Z,85.70
2019-03-03T09:00:25.989Z,86.30
2019-03-03T09:03:29.281Z,86.60
2019-03-03T09:06:25.857Z,87.10
2019-03-03T09:09:28.050Z,87.20
2019-03-03T09:12:15.292Z,87.50
2019-03-03T09:15:10.981Z,87.50
2019-03-03T09:18:04.607Z,87.20
2019-03-03T09:20:52.984Z,87.10
2019-03-03T09:23:39.809Z,87.50
2019-03-03T09:26:35.969Z,87.60
2019-03-03T09:29:31.749Z,87.20
2019-03-03T09:32:19.087Z,87.40
2019-03-03T09:35:06.659Z,87.00
2019-03-03T09:38:10.290Z,86.70
2019-03-03T09:40:57.469Z,86.90
2019-03-03T09:43:45.108Z,86.60
2019-03-03T09:46:32.072Z,86.70
2019-03-03T09:49:25.823Z,86.80
2019-03-03T09:52:12.771Z,87.00
2019-03-03T09:55:00.275Z,86.70
2019-03-03T09:57:59.356Z,86.30
2019-03-03T10:00:52.361Z,85.80
2019-03-03T10:03:42.295Z,85.50
2019-03-03T10:06:31.495Z,85.60
2019-03-03T10:09:29.535Z,85.40
2019-03-03T10:12:16.694Z,85.70
2019-03-03T10:15:12.886Z,85.50
2019-03-03T10:18:01.479Z,85.60
2019-03-03T10:21:08.338Z,85.50
2019-03-03T10:24:08.602Z,85.80
2019-03-03T10:26:55.652Z,85.90
2019-03-03T10:29:45.111Z,85.80
2019-03-03T10:32:46.825Z,85.90
2019-03-03T10:35:50.582Z,85.90
2019-03-03T10:38:40.980Z,85.70
2019-03-03T10:41:36.936Z,85.50
2019-03-03T10:44:40.367Z,85.40
2019-03-03T10:47:42.702Z,85.20
2019-03-03T10:50:29.916Z,85.30
2019-03-03T10:53:25.976Z,85.50
2019-03-03T10:56:31.092Z,85.30
2019-03-03T10:59:22.169Z,85.20
2019-03-03T11:02:09.137Z,85.10
2019-03-03T11:05:18.519Z,84.90
2019-03-03T11:07:47.428Z,84.50
2019-03-03T11:10:35.393Z,84.20
2019-03-03T11:13:41.263Z,84.20
2019-03-03T11:16:30.907Z,84.30
2019-03-03T11:19:20.483Z,84.20
2019-03-03T11:22:24.114Z,84.20
2019-03-03T11:25:11.331Z,84.20
2019-03-03T11:27:58.808Z,84.10
2019-03-03T11:31:03.536Z,84.10
2019-03-03T11:33:56.424Z,84.10
2019-03-03T11:36:44.993Z,84.00
2019-03-03T11:39:38.052Z,84.00
2019-03-03T11:42:27.826Z,84.10
2019-03-03T11:45:21.878Z,84.10
2019-03-03T11:48:13.525Z,84.70
2019-03-03T11:51:03.916Z,85.30
2019-03-03T11:54:06.276Z,85.20
2019-03-03T11:56:55.769Z,85.50
2019-03-03T12:00:01.182Z,85.60
2019-03-03T12:03:04.930Z,86.40
2019-03-03T12:05:53.537Z,87.40
2019-03-03T12:08:58.421Z,88.50
2019-03-03T12:12:04.190Z,89.40
2019-03-03T12:15:02.073Z,90.20
2019-03-03T12:18:01.199Z,90.70
2019-03-03T12:20:54.369Z,90.90
2019-03-03T12:23:54.144Z,91.10
2019-03-03T12:26:46.525Z,91.10
2019-03-03T12:29:35.842Z,91.20
2019-03-03T12:32:28.595Z,91.20
2019-03-03T12:35:15.895Z,91.30
2019-03-03T12:38:04.559Z,91.50
2019-03-03T12:40:52.687Z,91.70
2019-03-03T12:43:42.617Z,92.00
2019-03-03T12:46:32.793Z,92.40
2019-03-03T12:49:20.461Z,92.30
2019-03-03T12:52:10.237Z,92.30
2019-03-03T12:54:59.791Z,92.60
2019-03-03T12:58:08.263Z,92.80
2019-03-03T13:01:09.720Z,92.80
2019-03-03T13:04:13.695Z,92.90
2019-03-03T13:07:12.983Z,93.00
2019-03-03T13:10:01.496Z,93.00
2019-03-03T13:12:50.977Z,93.00
2019-03-03T13:15:41.215Z,93.10
2019-03-03T13:18:28.804Z,93.10
2019-03-03T13:21:24.811Z,93.10
2019-03-03T13:24:15.154Z,93.10
2019-03-03T13:27:09.644Z,93.30
2019-03-03T13:30:09.262Z,93.50
2019-03-03T13:32:57.252Z,93.50
2019-03-03T13:35:55.881Z,93.70
2019-03-03T13:38:47.156Z,93.60
2019-03-03T13:41:50.844Z,93.80
2019-03-03T13:44:37.710Z,93.80
2019-03-03T13:47:24.733Z,94.10
2019-03-03T13:50:13.650Z,94.00
2019-03-03T13:53:00.086Z,94.10
2019-03-03T13:55:45.690Z,94.10
2019-03-03T13:58:33.831Z,93.90
2019-03-03T14:01:19.750Z,93.90
2019-03-03T14:04:25.063Z,93.90
2019-03-03T14:07:18.531Z,94.00
2019-03-03T14:10:11.806Z,93.80
2019-03-03T14:12:57.427Z,93.70
2019-03-03T14:15:42.651Z,93.60
2019-03-03T14:18:27.802Z,93.70
2019-03-03T14:21:13.274Z,93.60
2019-03-03T14:23:58.272Z,93.40
2019-03-03T14:29:43.714Z,93.40
2019-03-03T14:32:30.168Z,93.30
2019-03-03T14:35:34.943Z,93.40
2019-03-03T14:38:22.507Z,93.40
2019-03-03T14:41:07.738Z,93.30
2019-03-03T14:43:54.858Z,93.40
2019-03-03T14:46:39.925Z,93.50
2019-03-03T14:49:25.633Z,93.70
2019-03-03T14:52:10.570Z,93.90
2019-03-03T14:54:55.958Z,93.80
2019-03-03T14:57:41.203Z,94.00
2019-03-03T15:00:31.050Z,93.90
2019-03-03T15:03:17.795Z,94.00
2019-03-03T15:06:04.133Z,94.00
2019-03-03T15:08:51.090Z,94.00
2019-03-03T15:11:36.504Z,94.00
2019-03-03T15:14:22.006Z,93.90
2019-03-03T15:17:07.287Z,93.80
2019-03-03T15:19:52.316Z,93.90
2019-03-03T15:22:37.574Z,93.70
2019-03-03T15:25:09.624Z,93.70
2019-03-03T15:27:36.884Z,93.80
2019-03-03T15:30:13.881Z,93.70
2019-03-03T15:32:40.933Z,93.90
2019-03-03T15:35:09.198Z,93.90
2019-03-03T15:37:40.887Z,93.80
2019-03-03T15:40:14.936Z,93.80
2019-03-03T15:42:43.321Z,93.80
2019-03-03T15:45:14.211Z,93.90
2019-03-03T15:47:42.746Z,93.80
2019-03-03T15:50:10.966Z,93.80
2019-03-03T15:52:37.999Z,93.80
2019-03-03T15:55:08.552Z,93.90
2019-03-03T15:57:35.996Z,93.90
2019-03-03T16:00:06.967Z,93.90
2019-03-03T16:02:34.748Z,93.80
2019-03-03T16:05:02.292Z,93.80
2019-03-03T16:07:29.956Z,93.80
2019-03-03T16:09:57.343Z,93.70
2019-03-03T16:12:24.720Z,93.60
2019-03-03T16:14:53.962Z,93.70
2019-03-03T16:17:24.030Z,93.80
2019-03-03T16:19:50.837Z,93.80
2019-03-03T16:22:18.851Z,93.80
2019-03-03T16:24:47.440Z,93.90
2019-03-03T16:27:14.676Z,93.70
2019-03-03T16:29:42.442Z,93.60
2019-03-03T16:32:09.774Z,93.70
2019-03-03T16:34:38.507Z,93.70
2019-03-03T16:37:05.410Z,93.70
2019-03-03T16:39:33.703Z,93.70
2019-03-03T16:42:02.070Z,93.70
2019-03-03T16:44:29.579Z,93.60
2019-03-03T16:46:57.511Z,93.50
2019-03-03T16:49:24.620Z,93.50
2019-03-03T16:51:52.177Z,93.50
2019-03-03T16:54:20.321Z,93.40
2019-03-03T16:56:47.526Z,93.40
2019-03-03T16:59:17.865Z,93.40
2019-03-03T17:01:45.120Z,93.30
2019-03-03T17:04:12.634Z,93.40
2019-03-03T17:06:39.976Z,93.30
2019-03-03T17:09:07.775Z,93.20
2019-03-03T17:11:35.169Z,93.20
2019-03-03T17:14:02.518Z,93.10
2019-03-03T17:16:29.810Z,93.20
2019-03-03T17:18:57.274Z,93.20
2019-03-03T17:21:24.994Z,93.30
2019-03-03T17:23:52.292Z,93.30
2019-03-03T17:26:20.109Z,93.30
2019-03-03T17:28:47.543Z,93.30
2019-03-03T17:31:16.389Z,93.30
2019-03-03T17:33:43.243Z,93.30
2019-03-03T17:36:10.951Z,93.20
2019-03-03T17:38:41.403Z,93.30
2019-03-03T17:41:10.771Z,93.20
2019-03-03T17:43:41.184Z,93.10
2019-03-03T17:46:08.644Z,93.00
2019-03-03T17:48:38.457Z,93.10
2019-03-03T17:51:08.364Z,93.10
2019-03-03T17:53:36.571Z,92.80
2019-03-03T17:56:08.449Z,92.80
2019-03-03T17:58:37.039Z,92.70
2019-03-03T18:01:08.739Z,92.80
2019-03-03T18:03:36.670Z,92.80
2019-03-03T18:06:03.969Z,92.80
2019-03-03T18:08:30.835Z,92.80
2019-03-03T18:10:58.557Z,92.70
2019-03-03T18:13:27.754Z,92.60
2019-03-03T18:15:57.902Z,92.60
2019-03-03T18:18:25.572Z,92.60
2019-03-03T18:20:53.519Z,92.60
2019-03-03T18:23:22.608Z,92.60
2019-03-03T18:25:52.667Z,92.60
2019-03-03T18:28:22.019Z,92.70
2019-03-03T18:30:49.523Z,92.80
2019-03-03T18:33:17.194Z,92.80
2019-03-03T18:35:46.896Z,93.00
2019-03-03T18:38:17.025Z,93.20
2019-03-03T18:40:44.741Z,93.40
2019-03-03T18:43:12.888Z,93.70
2019-03-03T18:45:42.593Z,93.90
2019-03-03T18:48:10.103Z,93.90
2019-03-03T18:50:37.925Z,94.10
2019-03-03T18:53:05.247Z,94.20
2019-03-03T18:55:33.624Z,94.30
2019-03-03T18:58:00.781Z,94.50
2019-03-03T19:00:29.874Z,94.20
2019-03-03T19:02:58.473Z,94.60
2019-03-03T19:05:30.257Z,94.60
2019-03-03T19:07:57.424Z,94.60
2019-03-03T19:10:27.138Z,94.70
2019-03-03T19:12:54.471Z,94.80
2019-03-03T19:15:22.293Z,94.80
2019-03-03T19:17:52.490Z,94.80
2019-03-03T19:20:21.699Z,94.90
2019-03-03T19:22:49.689Z,95.10
2019-03-03T19:25:16.792Z,95.10
2019-03-03T19:27:45.539Z,95.20
2019-03-03T19:30:24.890Z,95.30
2019-03-03T19:32:56.725Z,95.30
2019-03-03T19:35:23.753Z,95.40
2019-03-03T19:37:52.236Z,95.60
2019-03-03T19:40:19.980Z,95.60
2019-03-03T19:42:47.337Z,95.70
2019-03-03T19:45:26.259Z,95.80
2019-03-03T19:47:55.322Z,95.80
2019-03-03T19:50:24.313Z,95.90
2019-03-03T19:52:52.000Z,95.90
2019-03-03T19:55:19.553Z,96.00
2019-03-03T19:57:48.321Z,96.00
2019-03-03T20:00:36.849Z,96.10
2019-03-03T20:03:04.053Z,96.10
2019-03-03T20:05:32.481Z,96.10
2019-03-03T20:08:00.881Z,96.10
2019-03-03T20:10:28.417Z,96.10
2019-03-03T20:12:55.897Z,96.50
2019-03-03T20:15:23.505Z,96.20
2019-03-03T20:17:51.045Z,96.30
2019-03-03T20:20:19.844Z,96.30
2019-03-03T20:22:50.940Z,96.20
2019-03-03T20:25:17.910Z,96.20
2019-03-03T20:27:45.300Z,96.20
2019-03-03T20:30:23.316Z,96.20
2019-03-03T20:33:08.579Z,96.20
2019-03-03T20:35:53.766Z,96.20
2019-03-03T20:38:41.513Z,96.40
2019-03-03T20:41:26.704Z,96.50
2019-03-03T20:44:12.041Z,96.60
2019-03-03T20:46:57.449Z,96.80
2019-03-03T20:49:42.681Z,96.90
2019-03-03T20:52:28.839Z,97.00
2019-03-03T20:55:17.520Z,97.00
2019-03-03T20:58:02.818Z,96.80
2019-03-03T21:00:48.128Z,96.80
2019-03-03T21:03:33.170Z,96.80
2019-03-03T21:06:19.246Z,96.80
2019-03-03T21:09:05.168Z,96.80
2019-03-03T21:11:52.098Z,96.90
2019-03-03T21:14:36.880Z,96.70
2019-03-03T21:17:22.038Z,96.80
2019-03-03T21:20:13.175Z,96.80
2019-03-03T21:22:58.359Z,96.80
2019-03-03T21:25:43.591Z,96.80
2019-03-03T21:28:28.681Z,96.80
2019-03-03T21:31:15.460Z,97.00
2019-03-03T21:34:00.745Z,97.00
2019-03-03T21:36:48.305Z,96.80
2019-03-03T21:39:33.493Z,96.80
2019-03-03T21:42:19.009Z,96.90
2019-03-03T21:45:07.807Z,96.90
2019-03-03T21:47:56.474Z,96.80
2019-03-03T21:50:42.127Z,96.80
2019-03-03T21:53:29.638Z,96.80
2019-03-03T21:56:15.007Z,96.70
2019-03-03T21:58:59.964Z,96.80
2019-03-03T22:01:44.933Z,96.70
2019-03-03T22:04:30.166Z,96.80
2019-03-03T22:07:15.313Z,96.80
2019-03-03T22:10:00.718Z,96.80
2019-03-03T22:12:45.744Z,96.90
2019-03-03T22:15:31.186Z,97.00
2019-03-03T22:18:16.371Z,96.90
2019-03-03T22:21:03.507Z,97.10
2019-03-03T22:23:48.558Z,96.80
2019-03-03T22:26:34.809Z,96.90
2019-03-03T22:29:20.563Z,96.80
2019-03-03T22:32:05.654Z,96.60
2019-03-03T22:34:51.358Z,96.60
2019-03-03T22:37:36.691Z,96.70
2019-03-03T22:40:23.263Z,96.60
2019-03-03T22:43:08.125Z,96.60
2019-03-03T22:45:53.914Z,96.90
2019-03-03T22:48:41.793Z,96.80
2019-03-03T22:51:27.396Z,96.80
2019-03-03T22:54:14.426Z,96.80
2019-03-03T22:56:59.586Z,96.80
2019-03-03T22:59:44.606Z,96.70
2019-03-03T23:02:29.907Z,96.80
2019-03-03T23:05:54.013Z,96.70
2019-03-03T23:08:48.844Z,96.70
2019-03-03T23:12:08.639Z,96.80
2019-03-03T23:15:02.099Z,96.90
2019-03-03T23:18:03.347Z,96.80
2019-03-03T23:21:17.758Z,96.80
2019-03-03T23:24:15.193Z,96.80
2019-03-03T23:27:00.357Z,96.90
2019-03-03T23:29:45.618Z,97.10
2019-03-03T23:32:31.505Z,96.90
2019-03-03T23:35:16.767Z,96.90
2019-03-03T23:38:05.643Z,96.90
2019-03-03T23:40:50.515Z,96.80
2019-03-03T23:43:35.920Z,96.80
2019-03-03T23:46:21.249Z,96.80
2019-03-03T23:49:06.339Z,96.90
2019-03-03T23:51:51.656Z,96.80
2019-03-03T23:54:38.922Z,96.80
2019-03-03T23:57:23.801Z,96.80
